30NC weather

Happy Bottom Airport
Advance, North Carolina, United States

Public forecast

Using degrees Fahrenheit for public forecast. Weather courtesy of forecast.io.

METAR (pilot weather report)

Closest report is Smith Reynolds Airport, 12.5 nm (23.1 km) ENE. Retrieved 2019/07/24 06:54 UTC (50 minutes ago):

KINT 240654Z AUTO 33007KT 10SM CLR 18/16 A2996 RMK AO2 SLP136 T01830161 $

TAF (pilot weather forecast)

Closest forecast is Smith Reynolds Airport, 12.5 nm (23.1 km) ENE. Retrieved 2019/07/24 06:28 UTC (1 hour ago):

TAF KINT 240526Z 2406/2506 05005KT P6SM FEW025 BKN250 FM241300 03009KT P6SM SCT050 FM242300 03004KT P6SM SKC